sensor_id;sensor_type;location;lat;lon;timestamp;P1;durP1;ratioP1;P2;durP2;ratioP2
69621;SDS011;56841;55.964;37.674;2023-02-12T00:00:37;4.13;;;1.60;;
69621;SDS011;56841;55.964;37.674;2023-02-12T00:03:04;3.97;;;1.75;;
69621;SDS011;56841;55.964;37.674;2023-02-12T00:05:31;4.85;;;1.77;;
69621;SDS011;56841;55.964;37.674;2023-02-12T00:07:57;4.20;;;1.50;;
69621;SDS011;56841;55.964;37.674;2023-02-12T00:10:23;4.97;;;1.90;;
69621;SDS011;56841;55.964;37.674;2023-02-12T00:12:49;6.28;;;2.03;;
69621;SDS011;56841;55.964;37.674;2023-02-12T00:15:17;6.18;;;2.20;;
69621;SDS011;56841;55.964;37.674;2023-02-12T00:20:09;4.35;;;2.05;;
69621;SDS011;56841;55.964;37.674;2023-02-12T00:22:35;4.30;;;1.92;;
69621;SDS011;56841;55.964;37.674;2023-02-12T00:25:01;3.80;;;1.65;;
69621;SDS011;56841;55.964;37.674;2023-02-12T00:27:32;7.07;;;1.95;;
69621;SDS011;56841;55.964;37.674;2023-02-12T00:29:59;6.05;;;2.25;;
69621;SDS011;56841;55.964;37.674;2023-02-12T00:34:50;4.22;;;1.73;;
69621;SDS011;56841;55.964;37.674;2023-02-12T00:37:16;5.93;;;2.20;;
69621;SDS011;56841;55.964;37.674;2023-02-12T00:39:42;7.13;;;2.72;;
69621;SDS011;56841;55.964;37.674;2023-02-12T00:42:09;7.63;;;2.72;;
69621;SDS011;56841;55.964;37.674;2023-02-12T00:44:36;7.70;;;2.75;;
69621;SDS011;56841;55.964;37.674;2023-02-12T00:47:02;6.10;;;2.22;;
69621;SDS011;56841;55.964;37.674;2023-02-12T00:49:29;7.03;;;2.55;;
69621;SDS011;56841;55.964;37.674;2023-02-12T00:51:59;5.90;;;2.47;;
69621;SDS011;56841;55.964;37.674;2023-02-12T00:54:27;6.60;;;2.17;;
69621;SDS011;56841;55.964;37.674;2023-02-12T00:56:53;6.65;;;2.35;;
69621;SDS011;56841;55.964;37.674;2023-02-12T00:59:23;7.75;;;2.75;;
69621;SDS011;56841;55.964;37.674;2023-02-12T01:01:50;5.18;;;2.30;;
69621;SDS011;56841;55.964;37.674;2023-02-12T01:04:17;5.03;;;2.10;;
69621;SDS011;56841;55.964;37.674;2023-02-12T01:09:09;5.95;;;2.50;;
69621;SDS011;56841;55.964;37.674;2023-02-12T01:11:35;7.25;;;2.55;;
69621;SDS011;56841;55.964;37.674;2023-02-12T01:14:01;6.07;;;2.53;;
69621;SDS011;56841;55.964;37.674;2023-02-12T01:16:28;6.70;;;2.35;;
69621;SDS011;56841;55.964;37.674;2023-02-12T01:18:56;5.53;;;2.63;;
69621;SDS011;56841;55.964;37.674;2023-02-12T01:23:49;4.70;;;1.95;;
69621;SDS011;56841;55.964;37.674;2023-02-12T01:26:15;6.80;;;2.00;;
69621;SDS011;56841;55.964;37.674;2023-02-12T01:28:42;9.10;;;2.67;;
69621;SDS011;56841;55.964;37.674;2023-02-12T01:31:17;6.18;;;2.17;;
69621;SDS011;56841;55.964;37.674;2023-02-12T01:33:52;7.25;;;2.38;;
69621;SDS011;56841;55.964;37.674;2023-02-12T01:36:19;7.15;;;1.85;;
69621;SDS011;56841;55.964;37.674;2023-02-12T01:38:47;6.68;;;2.38;;
69621;SDS011;56841;55.964;37.674;2023-02-12T01:41:15;6.95;;;2.50;;
69621;SDS011;56841;55.964;37.674;2023-02-12T01:43:44;5.78;;;2.20;;
69621;SDS011;56841;55.964;37.674;2023-02-12T01:46:13;6.88;;;2.35;;
69621;SDS011;56841;55.964;37.674;2023-02-12T01:48:43;7.50;;;2.20;;
69621;SDS011;56841;55.964;37.674;2023-02-12T01:51:11;5.45;;;1.90;;
69621;SDS011;56841;55.964;37.674;2023-02-12T01:53:42;7.85;;;2.28;;
69621;SDS011;56841;55.964;37.674;2023-02-12T01:56:13;5.68;;;1.90;;
69621;SDS011;56841;55.964;37.674;2023-02-12T01:58:41;5.38;;;1.90;;
69621;SDS011;56841;55.964;37.674;2023-02-12T02:01:12;4.05;;;1.75;;
69621;SDS011;56841;55.964;37.674;2023-02-12T02:03:41;5.22;;;1.70;;
69621;SDS011;56841;55.964;37.674;2023-02-12T02:06:24;4.53;;;1.48;;
69621;SDS011;56841;55.964;37.674;2023-02-12T02:08:54;3.75;;;1.38;;
69621;SDS011;56841;55.964;37.674;2023-02-12T02:11:21;4.07;;;1.20;;
69621;SDS011;56841;55.964;37.674;2023-02-12T02:14:05;5.15;;;1.77;;
69621;SDS011;56841;55.964;37.674;2023-02-12T02:16:56;3.92;;;1.70;;
69621;SDS011;56841;55.964;37.674;2023-02-12T02:19:35;6.43;;;1.95;;
69621;SDS011;56841;55.964;37.674;2023-02-12T02:35:46;2.70;;;1.10;;
69621;SDS011;56841;55.964;37.674;2023-02-12T02:38:37;3.53;;;1.20;;
69621;SDS011;56841;55.964;37.674;2023-02-12T02:41:16;4.15;;;1.10;;
69621;SDS011;56841;55.964;37.674;2023-02-12T02:43:52;2.90;;;1.23;;
69621;SDS011;56841;55.964;37.674;2023-02-12T02:46:26;6.18;;;2.45;;
69621;SDS011;56841;55.964;37.674;2023-02-12T02:48:58;5.88;;;2.60;;
69621;SDS011;56841;55.964;37.674;2023-02-12T02:51:28;6.60;;;2.17;;
69621;SDS011;56841;55.964;37.674;2023-02-12T02:54:17;6.10;;;1.90;;
69621;SDS011;56841;55.964;37.674;2023-02-12T02:56:48;6.05;;;1.80;;
69621;SDS011;56841;55.964;37.674;2023-02-12T02:59:22;6.18;;;1.70;;
69621;SDS011;56841;55.964;37.674;2023-02-12T03:01:55;7.18;;;2.15;;
69621;SDS011;56841;55.964;37.674;2023-02-12T03:04:28;8.68;;;2.30;;
69621;SDS011;56841;55.964;37.674;2023-02-12T03:11:55;4.45;;;1.67;;
69621;SDS011;56841;55.964;37.674;2023-02-12T03:14:26;9.45;;;2.10;;
69621;SDS011;56841;55.964;37.674;2023-02-12T03:17:02;5.93;;;1.90;;
69621;SDS011;56841;55.964;37.674;2023-02-12T03:19:32;8.57;;;2.13;;
69621;SDS011;56841;55.964;37.674;2023-02-12T03:22:05;7.03;;;2.17;;
69621;SDS011;56841;55.964;37.674;2023-02-12T03:24:35;7.93;;;2.17;;
69621;SDS011;56841;55.964;37.674;2023-02-12T03:29:50;5.53;;;1.92;;
69621;SDS011;56841;55.964;37.674;2023-02-12T03:35:12;5.28;;;1.50;;
69621;SDS011;56841;55.964;37.674;2023-02-12T03:44:22;5.68;;;1.35;;
69621;SDS011;56841;55.964;37.674;2023-02-12T03:46:41;6.60;;;1.60;;
69621;SDS011;56841;55.964;37.674;2023-02-12T03:49:37;5.28;;;1.50;;
69621;SDS011;56841;55.964;37.674;2023-02-12T03:52:29;4.78;;;1.48;;
69621;SDS011;56841;55.964;37.674;2023-02-12T03:54:55;5.72;;;1.58;;
69621;SDS011;56841;55.964;37.674;2023-02-12T03:57:25;3.80;;;1.35;;
69621;SDS011;56841;55.964;37.674;2023-02-12T04:00:00;4.78;;;1.20;;
69621;SDS011;56841;55.964;37.674;2023-02-12T04:02:40;3.95;;;1.50;;
69621;SDS011;56841;55.964;37.674;2023-02-12T04:05:08;5.63;;;1.60;;
69621;SDS011;56841;55.964;37.674;2023-02-12T04:07:41;3.92;;;1.10;;
69621;SDS011;56841;55.964;37.674;2023-02-12T04:12:36;3.53;;;1.23;;
69621;SDS011;56841;55.964;37.674;2023-02-12T04:17:47;4.28;;;1.40;;
69621;SDS011;56841;55.964;37.674;2023-02-12T04:22:54;2.58;;;1.13;;
69621;SDS011;56841;55.964;37.674;2023-02-12T04:31:53;4.93;;;1.70;;
69621;SDS011;56841;55.964;37.674;2023-02-12T04:34:26;3.38;;;1.52;;
69621;SDS011;56841;55.964;37.674;2023-02-12T04:39:25;9.45;;;2.55;;
69621;SDS011;56841;55.964;37.674;2023-02-12T04:41:53;5.05;;;1.83;;
69621;SDS011;56841;55.964;37.674;2023-02-12T04:44:25;3.13;;;1.05;;
69621;SDS011;56841;55.964;37.674;2023-02-12T04:46:53;4.90;;;1.40;;
69621;SDS011;56841;55.964;37.674;2023-02-12T04:51:46;2.83;;;1.05;;
69621;SDS011;56841;55.964;37.674;2023-02-12T04:54:13;3.33;;;1.00;;
69621;SDS011;56841;55.964;37.674;2023-02-12T04:56:40;3.40;;;1.20;;
69621;SDS011;56841;55.964;37.674;2023-02-12T04:59:06;2.92;;;1.33;;
69621;SDS011;56841;55.964;37.674;2023-02-12T05:01:34;1.77;;;0.70;;
69621;SDS011;56841;55.964;37.674;2023-02-12T05:04:01;3.47;;;1.00;;
69621;SDS011;56841;55.964;37.674;2023-02-12T05:06:29;3.90;;;1.00;;
69621;SDS011;56841;55.964;37.674;2023-02-12T05:11:20;4.45;;;1.10;;
69621;SDS011;56841;55.964;37.674;2023-02-12T05:16:13;1.83;;;0.68;;
69621;SDS011;56841;55.964;37.674;2023-02-12T05:21:04;2.42;;;0.77;;
69621;SDS011;56841;55.964;37.674;2023-02-12T05:25:58;2.38;;;0.77;;
69621;SDS011;56841;55.964;37.674;2023-02-12T05:28:25;3.15;;;0.90;;
69621;SDS011;56841;55.964;37.674;2023-02-12T05:30:52;4.18;;;0.80;;
69621;SDS011;56841;55.964;37.674;2023-02-12T05:33:17;2.40;;;0.88;;
69621;SDS011;56841;55.964;37.674;2023-02-12T05:35:43;1.77;;;0.82;;
69621;SDS011;56841;55.964;37.674;2023-02-12T05:40:34;2.33;;;0.70;;
69621;SDS011;56841;55.964;37.674;2023-02-12T05:45:26;1.73;;;0.55;;
69621;SDS011;56841;55.964;37.674;2023-02-12T05:47:56;1.85;;;0.45;;
69621;SDS011;56841;55.964;37.674;2023-02-12T05:50:22;1.90;;;0.52;;
69621;SDS011;56841;55.964;37.674;2023-02-12T05:53:01;3.17;;;0.50;;
69621;SDS011;56841;55.964;37.674;2023-02-12T05:55:27;1.38;;;0.63;;
69621;SDS011;56841;55.964;37.674;2023-02-12T06:00:19;1.92;;;0.60;;
69621;SDS011;56841;55.964;37.674;2023-02-12T06:02:45;1.33;;;0.50;;
69621;SDS011;56841;55.964;37.674;2023-02-12T06:05:11;1.70;;;0.60;;
69621;SDS011;56841;55.964;37.674;2023-02-12T06:07:37;1.13;;;0.43;;
69621;SDS011;56841;55.964;37.674;2023-02-12T06:10:03;0.70;;;0.30;;
69621;SDS011;56841;55.964;37.674;2023-02-12T06:14:54;1.38;;;0.40;;
69621;SDS011;56841;55.964;37.674;2023-02-12T06:19:46;11.93;;;0.80;;
69621;SDS011;56841;55.964;37.674;2023-02-12T06:24:37;4.22;;;0.50;;
69621;SDS011;56841;55.964;37.674;2023-02-12T06:29:28;1.42;;;0.55;;
69621;SDS011;56841;55.964;37.674;2023-02-12T06:34:20;1.85;;;0.32;;
69621;SDS011;56841;55.964;37.674;2023-02-12T06:39:12;1.45;;;0.40;;
69621;SDS011;56841;55.964;37.674;2023-02-12T06:41:40;1.90;;;0.40;;
69621;SDS011;56841;55.964;37.674;2023-02-12T06:44:06;5.68;;;0.65;;
69621;SDS011;56841;55.964;37.674;2023-02-12T06:46:32;3.15;;;0.60;;
69621;SDS011;56841;55.964;37.674;2023-02-12T06:51:25;1.60;;;0.30;;
69621;SDS011;56841;55.964;37.674;2023-02-12T06:53:52;1.58;;;0.45;;
69621;SDS011;56841;55.964;37.674;2023-02-12T06:56:20;0.40;;;0.28;;
69621;SDS011;56841;55.964;37.674;2023-02-12T06:58:53;0.90;;;0.40;;
69621;SDS011;56841;55.964;37.674;2023-02-12T07:01:22;1.52;;;0.40;;
69621;SDS011;56841;55.964;37.674;2023-02-12T07:04:00;2.97;;;0.82;;
69621;SDS011;56841;55.964;37.674;2023-02-12T07:06:27;1.33;;;0.57;;
69621;SDS011;56841;55.964;37.674;2023-02-12T07:08:55;1.65;;;0.47;;
69621;SDS011;56841;55.964;37.674;2023-02-12T07:11:28;2.67;;;0.90;;
69621;SDS011;56841;55.964;37.674;2023-02-12T07:13:55;1.27;;;0.50;;
69621;SDS011;56841;55.964;37.674;2023-02-12T07:18:47;2.88;;;0.45;;
69621;SDS011;56841;55.964;37.674;2023-02-12T07:23:39;2.60;;;0.60;;
69621;SDS011;56841;55.964;37.674;2023-02-12T07:26:07;2.25;;;0.43;;
69621;SDS011;56841;55.964;37.674;2023-02-12T07:28:36;2.45;;;0.60;;
69621;SDS011;56841;55.964;37.674;2023-02-12T07:33:32;1.52;;;0.50;;
69621;SDS011;56841;55.964;37.674;2023-02-12T07:38:28;2.00;;;0.65;;
69621;SDS011;56841;55.964;37.674;2023-02-12T07:43:23;1.23;;;0.40;;
69621;SDS011;56841;55.964;37.674;2023-02-12T07:45:49;1.52;;;0.55;;
69621;SDS011;56841;55.964;37.674;2023-02-12T07:48:15;1.15;;;0.50;;
69621;SDS011;56841;55.964;37.674;2023-02-12T07:50:41;3.20;;;0.70;;
69621;SDS011;56841;55.964;37.674;2023-02-12T07:55:32;1.25;;;0.50;;
69621;SDS011;56841;55.964;37.674;2023-02-12T07:57:58;1.08;;;0.43;;
69621;SDS011;56841;55.964;37.674;2023-02-12T08:00:24;0.60;;;0.30;;
69621;SDS011;56841;55.964;37.674;2023-02-12T08:05:17;1.08;;;0.45;;
69621;SDS011;56841;55.964;37.674;2023-02-12T08:10:09;2.17;;;0.52;;
69621;SDS011;56841;55.964;37.674;2023-02-12T08:12:35;1.88;;;0.68;;
69621;SDS011;56841;55.964;37.674;2023-02-12T08:15:01;2.22;;;0.43;;
69621;SDS011;56841;55.964;37.674;2023-02-12T08:17:29;1.00;;;0.40;;
69621;SDS011;56841;55.964;37.674;2023-02-12T08:19:55;1.02;;;0.40;;
69621;SDS011;56841;55.964;37.674;2023-02-12T08:24:46;1.67;;;0.57;;
69621;SDS011;56841;55.964;37.674;2023-02-12T08:29:38;2.00;;;0.40;;
69621;SDS011;56841;55.964;37.674;2023-02-12T08:32:04;1.23;;;0.45;;
69621;SDS011;56841;55.964;37.674;2023-02-12T08:34:32;0.93;;;0.40;;
69621;SDS011;56841;55.964;37.674;2023-02-12T08:36:59;1.27;;;0.50;;
69621;SDS011;56841;55.964;37.674;2023-02-12T08:39:27;3.10;;;0.50;;
69621;SDS011;56841;55.964;37.674;2023-02-12T08:41:55;2.42;;;0.60;;
69621;SDS011;56841;55.964;37.674;2023-02-12T08:44:21;2.55;;;0.50;;
69621;SDS011;56841;55.964;37.674;2023-02-12T08:46:48;1.38;;;0.40;;
69621;SDS011;56841;55.964;37.674;2023-02-12T08:49:18;1.40;;;0.40;;
69621;SDS011;56841;55.964;37.674;2023-02-12T08:51:49;2.75;;;0.40;;
69621;SDS011;56841;55.964;37.674;2023-02-12T08:54:17;1.92;;;0.47;;
69621;SDS011;56841;55.964;37.674;2023-02-12T08:56:45;1.40;;;0.50;;
69621;SDS011;56841;55.964;37.674;2023-02-12T09:01:37;1.75;;;0.60;;
69621;SDS011;56841;55.964;37.674;2023-02-12T09:04:06;1.75;;;0.40;;
69621;SDS011;56841;55.964;37.674;2023-02-12T09:06:34;3.83;;;0.80;;
69621;SDS011;56841;55.964;37.674;2023-02-12T09:09:00;1.50;;;0.55;;
69621;SDS011;56841;55.964;37.674;2023-02-12T09:11:27;2.78;;;0.40;;
69621;SDS011;56841;55.964;37.674;2023-02-12T09:13:58;0.77;;;0.30;;
69621;SDS011;56841;55.964;37.674;2023-02-12T09:18:57;1.60;;;0.50;;
69621;SDS011;56841;55.964;37.674;2023-02-12T09:23:48;2.28;;;0.75;;
69621;SDS011;56841;55.964;37.674;2023-02-12T09:28:45;2.20;;;0.73;;
69621;SDS011;56841;55.964;37.674;2023-02-12T09:31:14;1.25;;;0.47;;
69621;SDS011;56841;55.964;37.674;2023-02-12T09:33:42;1.73;;;0.50;;
69621;SDS011;56841;55.964;37.674;2023-02-12T09:36:09;0.52;;;0.20;;
69621;SDS011;56841;55.964;37.674;2023-02-12T09:38:37;2.13;;;0.50;;
69621;SDS011;56841;55.964;37.674;2023-02-12T09:46:57;1.60;;;0.50;;
69621;SDS011;56841;55.964;37.674;2023-02-12T09:52:07;2.72;;;0.63;;
69621;SDS011;56841;55.964;37.674;2023-02-12T09:54:39;2.45;;;0.60;;
69621;SDS011;56841;55.964;37.674;2023-02-12T09:57:11;0.75;;;0.30;;
69621;SDS011;56841;55.964;37.674;2023-02-12T09:59:45;0.88;;;0.43;;
69621;SDS011;56841;55.964;37.674;2023-02-12T10:02:16;2.05;;;0.73;;
69621;SDS011;56841;55.964;37.674;2023-02-12T10:04:44;5.43;;;0.90;;
69621;SDS011;56841;55.964;37.674;2023-02-12T10:12:20;1.42;;;0.70;;
69621;SDS011;56841;55.964;37.674;2023-02-12T10:15:03;0.88;;;0.30;;
69621;SDS011;56841;55.964;37.674;2023-02-12T10:17:35;1.63;;;0.35;;
69621;SDS011;56841;55.964;37.674;2023-02-12T10:20:21;2.15;;;0.60;;
69621;SDS011;56841;55.964;37.674;2023-02-12T10:23:14;0.88;;;0.40;;
69621;SDS011;56841;55.964;37.674;2023-02-12T10:28:29;1.77;;;0.52;;
69621;SDS011;56841;55.964;37.674;2023-02-12T10:33:45;1.33;;;0.50;;
69621;SDS011;56841;55.964;37.674;2023-02-12T10:39:01;5.82;;;1.13;;
69621;SDS011;56841;55.964;37.674;2023-02-12T10:42:00;2.72;;;0.80;;
69621;SDS011;56841;55.964;37.674;2023-02-12T10:44:27;0.93;;;0.40;;
69621;SDS011;56841;55.964;37.674;2023-02-12T10:49:19;1.73;;;0.68;;
69621;SDS011;56841;55.964;37.674;2023-02-12T10:54:36;1.60;;;0.40;;
69621;SDS011;56841;55.964;37.674;2023-02-12T10:57:19;1.98;;;0.35;;
69621;SDS011;56841;55.964;37.674;2023-02-12T10:59:48;2.83;;;0.63;;
69621;SDS011;56841;55.964;37.674;2023-02-12T11:02:20;4.75;;;0.50;;
69621;SDS011;56841;55.964;37.674;2023-02-12T11:04:47;1.55;;;0.40;;
69621;SDS011;56841;55.964;37.674;2023-02-12T11:07:13;1.38;;;0.40;;
69621;SDS011;56841;55.964;37.674;2023-02-12T11:15:03;1.20;;;0.40;;
69621;SDS011;56841;55.964;37.674;2023-02-12T11:17:39;2.53;;;0.52;;
69621;SDS011;56841;55.964;37.674;2023-02-12T11:22:55;1.60;;;0.50;;
69621;SDS011;56841;55.964;37.674;2023-02-12T11:25:24;0.95;;;0.30;;
69621;SDS011;56841;55.964;37.674;2023-02-12T11:28:14;2.67;;;0.40;;
69621;SDS011;56841;55.964;37.674;2023-02-12T11:38:27;1.58;;;0.60;;
69621;SDS011;56841;55.964;37.674;2023-02-12T11:40:57;1.17;;;0.50;;
69621;SDS011;56841;55.964;37.674;2023-02-12T11:43:26;1.77;;;0.60;;
69621;SDS011;56841;55.964;37.674;2023-02-12T11:45:55;0.82;;;0.30;;
69621;SDS011;56841;55.964;37.674;2023-02-12T11:48:23;1.02;;;0.40;;
69621;SDS011;56841;55.964;37.674;2023-02-12T11:50:54;0.68;;;0.40;;
69621;SDS011;56841;55.964;37.674;2023-02-12T11:53:23;1.00;;;0.38;;
69621;SDS011;56841;55.964;37.674;2023-02-12T11:56:03;1.45;;;0.50;;
69621;SDS011;56841;55.964;37.674;2023-02-12T11:58:34;0.52;;;0.20;;
69621;SDS011;56841;55.964;37.674;2023-02-12T12:04:05;1.67;;;0.32;;
69621;SDS011;56841;55.964;37.674;2023-02-12T12:09:15;0.73;;;0.43;;
69621;SDS011;56841;55.964;37.674;2023-02-12T12:14:54;1.80;;;0.50;;
69621;SDS011;56841;55.964;37.674;2023-02-12T12:20:55;1.08;;;0.40;;
69621;SDS011;56841;55.964;37.674;2023-02-12T12:23:37;1.02;;;0.32;;
69621;SDS011;56841;55.964;37.674;2023-02-12T12:26:25;5.28;;;0.80;;
69621;SDS011;56841;55.964;37.674;2023-02-12T12:31:54;1.63;;;0.38;;
69621;SDS011;56841;55.964;37.674;2023-02-12T12:34:25;0.75;;;0.28;;
69621;SDS011;56841;55.964;37.674;2023-02-12T12:47:28;1.30;;;0.40;;
69621;SDS011;56841;55.964;37.674;2023-02-12T13:10:53;2.88;;;0.43;;
69621;SDS011;56841;55.964;37.674;2023-02-12T13:13:35;1.13;;;0.40;;
69621;SDS011;56841;55.964;37.674;2023-02-12T13:27:24;1.65;;;0.45;;
69621;SDS011;56841;55.964;37.674;2023-02-12T13:32:33;2.70;;;0.40;;
69621;SDS011;56841;55.964;37.674;2023-02-12T13:35:07;0.80;;;0.20;;
69621;SDS011;56841;55.964;37.674;2023-02-12T13:37:42;2.20;;;0.60;;
69621;SDS011;56841;55.964;37.674;2023-02-12T13:40:16;1.45;;;0.30;;
69621;SDS011;56841;55.964;37.674;2023-02-12T13:42:55;1.33;;;0.30;;
69621;SDS011;56841;55.964;37.674;2023-02-12T13:45:25;2.88;;;1.08;;
69621;SDS011;56841;55.964;37.674;2023-02-12T13:53:16;0.68;;;0.30;;
69621;SDS011;56841;55.964;37.674;2023-02-12T13:56:16;2.58;;;0.50;;
69621;SDS011;56841;55.964;37.674;2023-02-12T13:59:00;5.57;;;1.58;;
69621;SDS011;56841;55.964;37.674;2023-02-12T14:04:24;1.05;;;0.40;;
69621;SDS011;56841;55.964;37.674;2023-02-12T14:06:52;3.83;;;0.77;;
69621;SDS011;56841;55.964;37.674;2023-02-12T14:09:34;1.52;;;0.40;;
69621;SDS011;56841;55.964;37.674;2023-02-12T14:12:32;1.63;;;0.43;;
69621;SDS011;56841;55.964;37.674;2023-02-12T14:15:08;1.33;;;0.50;;
69621;SDS011;56841;55.964;37.674;2023-02-12T14:17:50;3.53;;;1.05;;
69621;SDS011;56841;55.964;37.674;2023-02-12T14:25:37;2.97;;;0.93;;
69621;SDS011;56841;55.964;37.674;2023-02-12T14:31:18;2.17;;;0.50;;
69621;SDS011;56841;55.964;37.674;2023-02-12T14:33:48;1.70;;;0.50;;
69621;SDS011;56841;55.964;37.674;2023-02-12T14:36:35;1.45;;;0.50;;
69621;SDS011;56841;55.964;37.674;2023-02-12T14:41:44;3.13;;;0.60;;
69621;SDS011;56841;55.964;37.674;2023-02-12T14:46:46;2.83;;;0.60;;
69621;SDS011;56841;55.964;37.674;2023-02-12T14:59:59;6.68;;;0.88;;
69621;SDS011;56841;55.964;37.674;2023-02-12T15:02:41;2.35;;;0.65;;
69621;SDS011;56841;55.964;37.674;2023-02-12T15:05:12;3.55;;;1.15;;
69621;SDS011;56841;55.964;37.674;2023-02-12T15:07:43;10.18;;;2.13;;
69621;SDS011;56841;55.964;37.674;2023-02-12T15:10:33;5.18;;;1.30;;
69621;SDS011;56841;55.964;37.674;2023-02-12T15:15:48;11.10;;;2.90;;
69621;SDS011;56841;55.964;37.674;2023-02-12T15:20:59;3.22;;;0.88;;
69621;SDS011;56841;55.964;37.674;2023-02-12T15:23:37;3.47;;;0.70;;
69621;SDS011;56841;55.964;37.674;2023-02-12T15:26:05;6.00;;;1.55;;
69621;SDS011;56841;55.964;37.674;2023-02-12T15:28:37;3.35;;;1.20;;
69621;SDS011;56841;55.964;37.674;2023-02-12T15:31:04;3.45;;;0.95;;
69621;SDS011;56841;55.964;37.674;2023-02-12T15:33:39;3.33;;;0.90;;
69621;SDS011;56841;55.964;37.674;2023-02-12T15:36:10;2.70;;;0.73;;
69621;SDS011;56841;55.964;37.674;2023-02-12T15:38:42;2.42;;;0.85;;
69621;SDS011;56841;55.964;37.674;2023-02-12T15:43:57;3.38;;;0.70;;
69621;SDS011;56841;55.964;37.674;2023-02-12T15:46:23;3.47;;;0.90;;
69621;SDS011;56841;55.964;37.674;2023-02-12T15:51:16;3.05;;;0.85;;
69621;SDS011;56841;55.964;37.674;2023-02-12T15:53:52;3.17;;;0.80;;
69621;SDS011;56841;55.964;37.674;2023-02-12T15:56:19;5.00;;;0.85;;
69621;SDS011;56841;55.964;37.674;2023-02-12T15:58:48;3.60;;;0.88;;
69621;SDS011;56841;55.964;37.674;2023-02-12T16:01:21;7.13;;;1.50;;
69621;SDS011;56841;55.964;37.674;2023-02-12T16:03:50;6.65;;;1.95;;
69621;SDS011;56841;55.964;37.674;2023-02-12T16:06:18;15.23;;;3.70;;
69621;SDS011;56841;55.964;37.674;2023-02-12T16:08:46;13.15;;;3.97;;
69621;SDS011;56841;55.964;37.674;2023-02-12T16:11:21;15.13;;;4.68;;
69621;SDS011;56841;55.964;37.674;2023-02-12T16:13:49;13.55;;;3.15;;
69621;SDS011;56841;55.964;37.674;2023-02-12T16:16:20;24.83;;;7.05;;
69621;SDS011;56841;55.964;37.674;2023-02-12T16:21:45;13.30;;;3.97;;
69621;SDS011;56841;55.964;37.674;2023-02-12T16:26:52;15.20;;;5.05;;
69621;SDS011;56841;55.964;37.674;2023-02-12T16:29:18;4.78;;;2.05;;
69621;SDS011;56841;55.964;37.674;2023-02-12T16:31:55;6.25;;;1.80;;
69621;SDS011;56841;55.964;37.674;2023-02-12T16:34:31;4.22;;;1.00;;
69621;SDS011;56841;55.964;37.674;2023-02-12T16:36:58;5.35;;;1.35;;
69621;SDS011;56841;55.964;37.674;2023-02-12T16:42:18;5.15;;;1.73;;
69621;SDS011;56841;55.964;37.674;2023-02-12T16:44:49;6.85;;;1.50;;
69621;SDS011;56841;55.964;37.674;2023-02-12T16:47:18;2.22;;;0.70;;
69621;SDS011;56841;55.964;37.674;2023-02-12T16:50:19;5.00;;;1.33;;
69621;SDS011;56841;55.964;37.674;2023-02-12T16:52:41;4.80;;;1.55;;
69621;SDS011;56841;55.964;37.674;2023-02-12T16:55:12;7.85;;;1.85;;
69621;SDS011;56841;55.964;37.674;2023-02-12T16:57:40;4.55;;;1.17;;
69621;SDS011;56841;55.964;37.674;2023-02-12T17:02:34;2.88;;;0.98;;
69621;SDS011;56841;55.964;37.674;2023-02-12T17:05:02;4.50;;;1.02;;
69621;SDS011;56841;55.964;37.674;2023-02-12T17:07:32;2.88;;;1.05;;
69621;SDS011;56841;55.964;37.674;2023-02-12T17:09:58;4.78;;;1.25;;
69621;SDS011;56841;55.964;37.674;2023-02-12T17:12:25;5.72;;;1.73;;
69621;SDS011;56841;55.964;37.674;2023-02-12T17:17:16;5.68;;;1.35;;
69621;SDS011;56841;55.964;37.674;2023-02-12T17:19:43;4.57;;;1.85;;
69621;SDS011;56841;55.964;37.674;2023-02-12T17:22:27;5.88;;;2.03;;
69621;SDS011;56841;55.964;37.674;2023-02-12T17:24:55;3.63;;;1.60;;
69621;SDS011;56841;55.964;37.674;2023-02-12T17:27:21;4.10;;;1.60;;
69621;SDS011;56841;55.964;37.674;2023-02-12T17:29:47;4.55;;;1.50;;
69621;SDS011;56841;55.964;37.674;2023-02-12T17:32:12;3.97;;;0.95;;
69621;SDS011;56841;55.964;37.674;2023-02-12T17:34:38;5.03;;;1.48;;
69621;SDS011;56841;55.964;37.674;2023-02-12T17:37:04;6.28;;;1.88;;
69621;SDS011;56841;55.964;37.674;2023-02-12T17:39:31;3.35;;;1.42;;
69621;SDS011;56841;55.964;37.674;2023-02-12T17:41:57;3.08;;;1.20;;
69621;SDS011;56841;55.964;37.674;2023-02-12T17:44:25;5.47;;;1.48;;
69621;SDS011;56841;55.964;37.674;2023-02-12T17:49:17;5.40;;;1.58;;
69621;SDS011;56841;55.964;37.674;2023-02-12T17:51:43;4.80;;;1.83;;
69621;SDS011;56841;55.964;37.674;2023-02-12T17:54:09;4.80;;;1.50;;
69621;SDS011;56841;55.964;37.674;2023-02-12T17:56:35;7.80;;;1.52;;
69621;SDS011;56841;55.964;37.674;2023-02-12T17:59:00;2.28;;;1.00;;
69621;SDS011;56841;55.964;37.674;2023-02-12T18:01:26;5.00;;;1.30;;
69621;SDS011;56841;55.964;37.674;2023-02-12T18:03:53;5.75;;;2.00;;
69621;SDS011;56841;55.964;37.674;2023-02-12T18:06:23;3.50;;;1.20;;
69621;SDS011;56841;55.964;37.674;2023-02-12T18:08:51;5.15;;;1.35;;
69621;SDS011;56841;55.964;37.674;2023-02-12T18:11:17;2.80;;;1.10;;
69621;SDS011;56841;55.964;37.674;2023-02-12T18:13:44;4.70;;;1.30;;
69621;SDS011;56841;55.964;37.674;2023-02-12T18:18:36;5.18;;;1.20;;
69621;SDS011;56841;55.964;37.674;2023-02-12T18:21:06;2.63;;;0.80;;
69621;SDS011;56841;55.964;37.674;2023-02-12T18:23:34;1.95;;;0.98;;
69621;SDS011;56841;55.964;37.674;2023-02-12T18:26:03;3.80;;;1.20;;
69621;SDS011;56841;55.964;37.674;2023-02-12T18:28:33;5.70;;;1.20;;
69621;SDS011;56841;55.964;37.674;2023-02-12T18:31:00;4.43;;;1.02;;
69621;SDS011;56841;55.964;37.674;2023-02-12T18:33:26;3.92;;;1.10;;
69621;SDS011;56841;55.964;37.674;2023-02-12T18:35:59;4.82;;;1.13;;
69621;SDS011;56841;55.964;37.674;2023-02-12T18:38:27;3.00;;;0.93;;
69621;SDS011;56841;55.964;37.674;2023-02-12T18:40:53;4.10;;;1.15;;
69621;SDS011;56841;55.964;37.674;2023-02-12T18:43:19;2.78;;;0.70;;
69621;SDS011;56841;55.964;37.674;2023-02-12T18:45:45;3.08;;;0.88;;
69621;SDS011;56841;55.964;37.674;2023-02-12T18:48:11;2.15;;;0.82;;
69621;SDS011;56841;55.964;37.674;2023-02-12T18:50:37;2.15;;;0.65;;
69621;SDS011;56841;55.964;37.674;2023-02-12T18:53:03;5.43;;;1.20;;
69621;SDS011;56841;55.964;37.674;2023-02-12T18:55:29;1.42;;;0.63;;
69621;SDS011;56841;55.964;37.674;2023-02-12T18:57:57;4.30;;;1.00;;
69621;SDS011;56841;55.964;37.674;2023-02-12T19:00:23;2.83;;;1.10;;
69621;SDS011;56841;55.964;37.674;2023-02-12T19:02:49;3.22;;;0.63;;
69621;SDS011;56841;55.964;37.674;2023-02-12T19:05:15;2.80;;;1.02;;
69621;SDS011;56841;55.964;37.674;2023-02-12T19:07:41;2.00;;;0.75;;
69621;SDS011;56841;55.964;37.674;2023-02-12T19:10:09;2.20;;;0.82;;
69621;SDS011;56841;55.964;37.674;2023-02-12T19:12:42;2.15;;;0.80;;
69621;SDS011;56841;55.964;37.674;2023-02-12T19:15:11;3.55;;;0.70;;
69621;SDS011;56841;55.964;37.674;2023-02-12T19:17:43;2.30;;;0.80;;
69621;SDS011;56841;55.964;37.674;2023-02-12T19:20:09;6.40;;;0.90;;
69621;SDS011;56841;55.964;37.674;2023-02-12T19:22:37;2.13;;;0.65;;
69621;SDS011;56841;55.964;37.674;2023-02-12T19:27:29;4.00;;;0.90;;
69621;SDS011;56841;55.964;37.674;2023-02-12T19:29:55;2.80;;;1.08;;
69621;SDS011;56841;55.964;37.674;2023-02-12T19:32:21;4.00;;;1.17;;
69621;SDS011;56841;55.964;37.674;2023-02-12T19:34:47;1.45;;;0.55;;
69621;SDS011;56841;55.964;37.674;2023-02-12T19:37:16;2.30;;;0.60;;
69621;SDS011;56841;55.964;37.674;2023-02-12T19:39:44;1.55;;;0.60;;
69621;SDS011;56841;55.964;37.674;2023-02-12T19:42:11;3.58;;;1.33;;
69621;SDS011;56841;55.964;37.674;2023-02-12T19:44:43;2.25;;;0.88;;